Time;durP1;ratioP1;P1;durP2;ratioP2;P2;SDS_P1;SDS_P2;PMS_P1;PMS_P2;Temp;Humidity;BMP_temperature;BMP_pressure;BME280_temperature;BME280_humidity;BME280_pressure;Samples;Min_cycle;Max_cycle;Signal;HPM_P1;HPM_P2
2023/12/27 00:01:27;;;;;;;6.18;4.50;;;;;;;;;;5031576;28;20112;-78
2023/12/27 00:03:53;;;;;;;6.65;5.03;;;;;;;;;;5031857;28;20052;-77
2023/12/27 00:06:18;;;;;;;;;;;;;;;;;;5032304;28;20041;-77
2023/12/27 00:08:44;;;;;;;9.05;5.25;;;;;;;;;;5031791;28;21107;-77
2023/12/27 00:11:09;;;;;;;7.07;4.95;;;;;;;;;;5030272;28;20069;-76
2023/12/27 00:13:34;;;;;;;6.43;4.85;;;;;;;;;;5031063;28;20033;-76
2023/12/27 00:16:00;;;;;;;;;;;;;;;;;;5030974;28;20041;-76
2023/12/27 00:18:25;;;;;;;6.90;4.88;;;;;;;;;;5031336;28;19913;-77
2023/12/27 00:20:51;;;;;;;7.38;4.75;;;;;;;;;;5030998;28;20433;-77
2023/12/27 00:23:16;;;;;;;;;;;;;;;;;;5031539;28;20110;-77
2023/12/27 00:25:41;;;;;;;6.97;5.15;;;;;;;;;;5030930;28;19913;-77
2023/12/27 00:28:07;;;;;;;6.70;4.50;;;;;;;;;;5030255;28;20029;-77
2023/12/27 00:30:33;;;;;;;8.10;4.45;;;;;;;;;;5029113;28;20037;-76
2023/12/27 00:32:58;;;;;;;;;;;;;;;;;;5035695;28;20120;-77
2023/12/27 00:35:23;;;;;;;6.45;4.28;;;;;;;;;;5032048;28;19963;-78
2023/12/27 00:37:49;;;;;;;5.85;4.18;;;;;;;;;;5030780;28;20064;-77
2023/12/27 00:40:14;;;;;;;;;;;;;;;;;;5030108;28;20405;-78
2023/12/27 00:42:40;;;;;;;8.20;5.15;;;;;;;;;;5016217;28;19920;-78
2023/12/27 00:45:05;;;;;;;;;;;;;;;;;;5010370;28;20508;-78
2023/12/27 00:47:31;;;;;;;7.53;4.15;;;;;;;;;;5034647;28;19920;-77
2023/12/27 00:49:57;;;;;;;7.47;4.70;;;;;;;;;;5013349;28;20041;-77
2023/12/27 00:52:22;;;;;;;6.40;4.55;;;;;;;;;;5030356;28;20029;-78
2023/12/27 00:54:47;;;;;;;;;;;;;;;;;;5026161;28;20036;-78
2023/12/27 00:57:13;;;;;;;9.32;4.80;;;;;;;;;;5047823;28;19916;-78
2023/12/27 00:59:38;;;;;;;8.60;4.32;;;;;;;;;;5038105;28;20038;-78
2023/12/27 01:02:04;;;;;;;6.85;4.25;;;;;;;;;;5033202;28;20029;-78
2023/12/27 01:04:31;;;;;;;7.60;4.57;;;;;;;;;;5036793;28;20025;-77
2023/12/27 01:06:56;;;;;;;8.27;4.68;;;;;;;;;;5017695;28;20033;-78
2023/12/27 01:09:21;;;;;;;;;;;;;;;;;;5033681;28;20503;-78
2023/12/27 01:11:47;;;;;;;8.25;4.88;;;;;;;;;;5033177;28;19912;-78
2023/12/27 01:14:12;;;;;;;10.73;5.22;;;;;;;;;;5033623;28;20498;-78
2023/12/27 01:16:38;;;;;;;;;;;;;;;;;;5033658;28;20124;-78
2023/12/27 01:19:03;;;;;;;7.47;4.85;;;;;;;;;;5033975;28;20692;-78
2023/12/27 01:21:29;;;;;;;;;;;;;;;;;;5033909;28;20500;-77
2023/12/27 01:23:54;;;;;;;8.30;4.68;;;;;;;;;;5034561;28;19940;-78
2023/12/27 01:26:20;;;;;;;8.88;5.28;;;;;;;;;;5034802;28;20037;-78
2023/12/27 01:28:46;;;;;;;10.10;5.32;;;;;;;;;;5033337;28;20025;-78
2023/12/27 01:31:12;;;;;;;;;;;;;;;;;;5033447;28;20044;-78
2023/12/27 01:33:37;;;;;;;10.52;5.75;;;;;;;;;;5036464;28;19908;-78
2023/12/27 01:36:06;;;;;;;8.57;5.18;;;;;;;;;;5033445;28;20408;-78
2023/12/27 01:38:32;;;;;;;8.95;4.95;;;;;;;;;;5033155;28;20047;-78
2023/12/27 01:40:57;;;;;;;;;;;;;;;;;;5037438;28;20029;-78
2023/12/27 01:43:22;;;;;;;11.30;6.50;;;;;;;;;;5035842;28;19955;-77
2023/12/27 01:45:48;;;;;;;8.20;5.22;;;;;;;;;;5036605;28;20075;-77
2023/12/27 01:48:13;;;;;;;;;;;;;;;;;;5043271;28;20120;-78
2023/12/27 01:50:39;;;;;;;8.50;4.47;;;;;;;;;;5044961;28;20015;-78
2023/12/27 01:53:05;;;;;;;7.95;4.90;;;;;;;;;;5036567;28;20040;-78
2023/12/27 01:55:30;;;;;;;7.07;4.45;;;;;;;;;;5024456;28;20041;-78
2023/12/27 01:57:56;;;;;;;7.65;4.45;;;;;;;;;;5040368;28;20029;-78
2023/12/27 02:00:21;;;;;;;8.70;4.43;;;;;;;;;;5032780;28;20068;-78
2023/12/27 02:02:48;;;;;;;7.47;4.32;;;;;;;;;;5039707;28;20025;-78
2023/12/27 02:05:15;;;;;;;8.75;4.70;;;;;;;;;;5020908;28;20037;-77
2023/12/27 02:07:40;;;;;;;;;;;;;;;;;;5013341;28;20117;-77
2023/12/27 02:10:06;;;;;;;7.80;4.55;;;;;;;;;;5042349;28;20346;-78
2023/12/27 02:12:31;;;;;;;;;;;;;;;;;;5034230;28;20589;-78
2023/12/27 02:14:57;;;;;;;7.93;4.35;;;;;;;;;;5033500;28;20299;-78
2023/12/27 02:17:23;;;;;;;9.48;5.82;;;;;;;;;;5016277;28;20036;-78
2023/12/27 02:19:48;;;;;;;8.82;5.30;;;;;;;;;;5015139;28;20041;-78
2023/12/27 02:22:15;;;;;;;7.30;4.65;;;;;;;;;;5016036;28;20018;-77
2023/12/27 02:24:40;;;;;;;7.35;4.45;;;;;;;;;;5031394;28;20404;-78
2023/12/27 02:27:06;;;;;;;;;;;;;;;;;;5015832;28;20021;-77
2023/12/27 02:29:31;;;;;;;7.22;4.72;;;;;;;;;;5032038;28;19919;-77
2023/12/27 02:31:56;;;;;;;9.98;5.53;;;;;;;;;;5015746;28;20483;-77
2023/12/27 02:34:22;;;;;;;;;;;;;;;;;;5032363;28;20491;-77
2023/12/27 02:36:48;;;;;;;8.75;5.07;;;;;;;;;;5037031;28;19909;-77
2023/12/27 02:39:13;;;;;;;;;;;;;;;;;;5036529;28;20065;-77
2023/12/27 02:41:39;;;;;;;10.05;5.43;;;;;;;;;;5036146;28;19968;-77
2023/12/27 02:44:04;;;;;;;9.95;5.30;;;;;;;;;;5045564;28;20050;-77
2023/12/27 02:46:33;;;;;;;9.13;5.55;;;;;;;;;;5016980;28;20499;-77
2023/12/27 02:48:59;;;;;;;9.57;5.55;;;;;;;;;;5048134;28;20064;-77
2023/12/27 02:51:24;;;;;;;;;;;;;;;;;;5013359;28;20512;-77
2023/12/27 02:53:50;;;;;;;9.75;6.00;;;;;;;;;;5037379;28;19913;-77
2023/12/27 02:56:15;;;;;;;;;;;;;;;;;;5039149;28;20025;-77
2023/12/27 02:58:41;;;;;;;9.13;5.80;;;;;;;;;;5037604;28;19913;-77
2023/12/27 03:01:07;;;;;;;8.57;5.10;;;;;;;;;;5028125;28;20029;-77
2023/12/27 03:03:32;;;;;;;8.75;5.38;;;;;;;;;;5047683;28;20037;-77
2023/12/27 03:05:57;;;;;;;;;;;;;;;;;;5029380;28;20036;-77
2023/12/27 03:08:23;;;;;;;9.23;4.85;;;;;;;;;;5028744;28;20401;-78
2023/12/27 03:10:49;;;;;;;;;;;;;;;;;;5015680;28;20817;-77
2023/12/27 03:13:14;;;;;;;7.63;5.07;;;;;;;;;;5031444;28;19951;-78
2023/12/27 03:15:40;;;;;;;7.75;4.95;;;;;;;;;;5014807;28;20172;-78
2023/12/27 03:18:05;;;;;;;9.40;5.20;;;;;;;;;;5014503;28;20037;-78
2023/12/27 03:20:31;;;;;;;7.43;4.68;;;;;;;;;;5031595;28;20025;-78
2023/12/27 03:22:56;;;;;;;;;;;;;;;;;;5031279;28;20033;-78
2023/12/27 03:25:22;;;;;;;8.80;4.88;;;;;;;;;;5023304;28;20006;-78
2023/12/27 03:27:47;;;;;;;9.38;4.80;;;;;;;;;;5014896;28;20493;-77
2023/12/27 03:30:13;;;;;;;8.00;4.78;;;;;;;;;;5031057;28;20120;-78
2023/12/27 03:32:38;;;;;;;7.75;5.05;;;;;;;;;;5030887;28;20140;-78
2023/12/27 03:35:04;;;;;;;7.25;4.55;;;;;;;;;;5032602;28;20029;-78
2023/12/27 03:37:29;;;;;;;;;;;;;;;;;;5034718;28;20116;-78
2023/12/27 03:39:54;;;;;;;6.93;4.55;;;;;;;;;;5035268;28;20269;-78
2023/12/27 03:42:20;;;;;;;9.30;4.30;;;;;;;;;;5037070;28;20040;-78
2023/12/27 03:44:46;;;;;;;;;;;;;;;;;;5038895;28;20093;-78
2023/12/27 03:47:12;;;;;;;8.65;4.50;;;;;;;;;;5041140;28;19913;-78
2023/12/27 03:49:37;;;;;;;;;;;;;;;;;;5041753;28;20035;-78
2023/12/27 03:52:03;;;;;;;7.03;4.40;;;;;;;;;;5036840;28;19919;-78
2023/12/27 03:54:29;;;;;;;8.68;4.47;;;;;;;;;;5025990;28;20414;-78
2023/12/27 03:56:54;;;;;;;;;;;;;;;;;;5049457;28;20140;-78
2023/12/27 03:59:20;;;;;;;9.30;4.70;;;;;;;;;;5031408;28;19916;-78
2023/12/27 04:01:45;;;;;;;8.60;5.18;;;;;;;;;;5028331;28;20067;-78
2023/12/27 04:04:13;;;;;;;10.55;5.65;;;;;;;;;;5037714;28;20029;-78
2023/12/27 04:06:39;;;;;;;11.05;6.88;;;;;;;;;;5026284;28;20048;-78
2023/12/27 04:09:04;;;;;;;13.98;6.57;;;;;;;;;;5011150;28;20022;-77
2023/12/27 04:11:30;;;;;;;11.25;6.22;;;;;;;;;;5025940;28;20044;-77
2023/12/27 04:13:55;;;;;;;;;;;;;;;;;;5031416;28;21200;-78
2023/12/27 04:16:21;;;;;;;10.88;7.05;;;;;;;;;;5029287;28;20260;-77
2023/12/27 04:18:46;;;;;;;11.00;6.47;;;;;;;;;;5035327;28;20061;-79
2023/12/27 04:21:12;;;;;;;13.20;6.55;;;;;;;;;;5035643;28;20132;-77
2023/12/27 04:23:37;;;;;;;12.13;6.32;;;;;;;;;;5033863;28;20036;-77
2023/12/27 04:26:03;;;;;;;11.02;6.07;;;;;;;;;;5017037;28;20038;-79
2023/12/27 04:28:28;;;;;;;;;;;;;;;;;;5015316;28;20026;-78
2023/12/27 04:30:54;;;;;;;11.10;6.20;;;;;;;;;;5038555;28;19913;-78
2023/12/27 04:33:19;;;;;;;9.57;5.90;;;;;;;;;;5030481;28;20034;-78
2023/12/27 04:35:45;;;;;;;9.88;6.13;;;;;;;;;;5024689;28;20048;-79
2023/12/27 04:38:13;;;;;;;19.15;10.77;;;;;;;;;;5019162;28;20035;-79
2023/12/27 04:40:42;;;;;;;12.85;6.45;;;;;;;;;;5033654;28;20037;-78
2023/12/27 04:43:09;;;;;;;13.27;6.50;;;;;;;;;;5022865;28;20099;-78
2023/12/27 04:45:34;;;;;;;;;;;;;;;;;;5032569;28;20057;-78
2023/12/27 04:48:01;;;;;;;11.95;6.47;;;;;;;;;;5050505;28;19925;-78
2023/12/27 04:50:26;;;;;;;;;;;;;;;;;;5031522;28;20854;-78
2023/12/27 04:52:52;;;;;;;11.32;6.10;;;;;;;;;;5039810;28;19919;-78
2023/12/27 04:55:18;;;;;;;;;;;;;;;;;;4996477;28;20131;-78
2023/12/27 04:57:43;;;;;;;10.93;6.22;;;;;;;;;;5025410;28;20003;-78
2023/12/27 05:00:09;;;;;;;11.27;6.18;;;;;;;;;;5034618;28;20484;-77
2023/12/27 05:02:34;;;;;;;10.40;6.53;;;;;;;;;;5029525;28;20079;-79
2023/12/27 05:05:00;;;;;;;14.93;6.93;;;;;;;;;;5029260;28;20034;-77
2023/12/27 05:07:25;;;;;;;;;;;;;;;;;;5013599;28;20057;-77
2023/12/27 05:09:51;;;;;;;12.60;6.47;;;;;;;;;;5028799;28;19939;-79
2023/12/27 05:12:16;;;;;;;;;;;;;;;;;;5029849;28;20033;-79
2023/12/27 05:14:41;;;;;;;14.02;8.80;;;;;;;;;;5029881;28;19931;-78
2023/12/27 05:17:07;;;;;;;;;;;;;;;;;;5030342;28;20071;-77
2023/12/27 05:19:32;;;;;;;12.80;6.80;;;;;;;;;;5030803;28;20024;-79
2023/12/27 05:21:58;;;;;;;10.90;6.70;;;;;;;;;;5029418;28;20022;-78
2023/12/27 05:24:23;;;;;;;16.20;7.97;;;;;;;;;;5030415;28;20043;-78
2023/12/27 05:26:48;;;;;;;11.85;6.35;;;;;;;;;;5030346;28;20030;-78
2023/12/27 05:29:14;;;;;;;15.10;6.78;;;;;;;;;;5029102;28;20121;-78
2023/12/27 05:31:40;;;;;;;11.70;6.80;;;;;;;;;;5034934;28;20036;-78
2023/12/27 05:34:05;;;;;;;10.68;6.35;;;;;;;;;;5030263;28;20045;-77
2023/12/27 05:36:31;;;;;;;12.05;6.35;;;;;;;;;;5029590;28;20065;-78
2023/12/27 05:38:56;;;;;;;14.85;6.38;;;;;;;;;;5031408;28;20037;-78
2023/12/27 05:41:24;;;;;;;13.32;7.05;;;;;;;;;;5029817;28;20068;-78
2023/12/27 05:43:51;;;;;;;11.07;6.18;;;;;;;;;;5029491;28;20488;-78
2023/12/27 05:46:16;;;;;;;;;;;;;;;;;;5021054;28;20037;-78
2023/12/27 05:48:42;;;;;;;9.45;5.60;;;;;;;;;;5028883;28;20011;-78
2023/12/27 05:51:08;;;;;;;;;;;;;;;;;;5032600;28;20124;-77
2023/12/27 05:53:33;;;;;;;11.85;6.43;;;;;;;;;;5016410;28;20051;-78
2023/12/27 05:55:59;;;;;;;9.20;5.57;;;;;;;;;;5031794;28;20037;-77
2023/12/27 05:58:24;;;;;;;11.18;6.22;;;;;;;;;;5033423;28;20037;-78
2023/12/27 06:00:50;;;;;;;13.10;6.15;;;;;;;;;;5032472;28;20476;-78
2023/12/27 06:03:15;;;;;;;10.25;5.85;;;;;;;;;;5032510;28;20037;-77
2023/12/27 06:05:41;;;;;;;12.23;6.18;;;;;;;;;;5045508;28;20072;-78
2023/12/27 06:08:06;;;;;;;12.05;6.05;;;;;;;;;;5033278;28;20033;-78
2023/12/27 06:10:32;;;;;;;10.65;6.10;;;;;;;;;;5035702;28;20053;-78
2023/12/27 06:12:57;;;;;;;10.07;6.32;;;;;;;;;;5033037;28;20033;-78
2023/12/27 06:15:23;;;;;;;10.85;5.93;;;;;;;;;;5031316;28;20423;-78
2023/12/27 06:17:48;;;;;;;11.45;6.90;;;;;;;;;;5037633;28;20037;-78
2023/12/27 06:20:13;;;;;;;;;;;;;;;;;;5018245;28;20543;-77
2023/12/27 06:22:39;;;;;;;13.02;6.30;;;;;;;;;;5033040;28;19917;-78
2023/12/27 06:25:05;;;;;;;11.43;6.43;;;;;;;;;;5034355;28;20033;-78
2023/12/27 06:27:30;;;;;;;;;;;;;;;;;;5032972;28;20037;-78
2023/12/27 06:29:56;;;;;;;12.38;7.38;;;;;;;;;;5032915;28;19923;-79
2023/12/27 06:32:22;;;;;;;;;;;;;;;;;;5033510;28;20064;-79
2023/12/27 06:34:47;;;;;;;14.93;7.45;;;;;;;;;;5032533;28;19909;-78
2023/12/27 06:37:13;;;;;;;;;;;;;;;;;;5031453;28;20091;-79
2023/12/27 06:39:38;;;;;;;20.23;9.60;;;;;;;;;;5032675;28;19912;-79
2023/12/27 06:42:04;;;;;;;18.75;9.98;;;;;;;;;;5014931;28;20065;-78
2023/12/27 06:44:29;;;;;;;20.27;10.80;;;;;;;;;;5033771;28;20397;-78
2023/12/27 06:46:54;;;;;;;;;;;;;;;;;;5031199;28;20045;-79
2023/12/27 06:49:20;;;;;;;22.80;10.93;;;;;;;;;;5033573;28;20007;-78
2023/12/27 06:51:45;;;;;;;;;;;;;;;;;;5032537;28;20492;-78
2023/12/27 06:54:11;;;;;;;19.63;9.80;;;;;;;;;;5032191;28;19908;-78
2023/12/27 06:56:38;;;;;;;;;;;;;;;;;;5032781;28;20060;-78
2023/12/27 06:59:04;;;;;;;15.75;8.07;;;;;;;;;;5031744;28;19908;-78
2023/12/27 07:01:29;;;;;;;;;;;;;;;;;;5033190;28;20492;-78
2023/12/27 07:03:55;;;;;;;11.35;7.00;;;;;;;;;;5031479;28;19909;-78
2023/12/27 07:06:20;;;;;;;12.43;6.70;;;;;;;;;;5027395;28;20451;-79
2023/12/27 07:08:46;;;;;;;11.77;6.43;;;;;;;;;;5031639;28;20052;-78
2023/12/27 07:11:11;;;;;;;;;;;;;;;;;;5031170;28;20430;-77
2023/12/27 07:13:36;;;;;;;11.32;5.88;;;;;;;;;;5032513;28;19908;-78
2023/12/27 07:16:02;;;;;;;13.00;7.07;;;;;;;;;;5033218;28;20041;-78
2023/12/27 07:18:27;;;;;;;11.52;7.20;;;;;;;;;;5015621;28;20037;-79
2023/12/27 07:20:53;;;;;;;12.90;8.13;;;;;;;;;;5033839;28;20163;-78
2023/12/27 07:23:18;;;;;;;15.57;9.32;;;;;;;;;;5035492;28;20038;-78
2023/12/27 07:25:44;;;;;;;17.65;9.27;;;;;;;;;;5030449;28;20041;-78
2023/12/27 07:28:09;;;;;;;;;;;;;;;;;;5019579;28;20496;-78
2023/12/27 07:30:35;;;;;;;15.75;8.05;;;;;;;;;;5032198;28;19913;-78
2023/12/27 07:33:01;;;;;;;15.52;9.10;;;;;;;;;;5043023;28;20025;-78
2023/12/27 07:35:26;;;;;;;;;;;;;;;;;;5032972;28;20392;-79
2023/12/27 07:37:52;;;;;;;16.17;9.82;;;;;;;;;;5030039;28;19909;-78
2023/12/27 07:40:18;;;;;;;16.23;10.32;;;;;;;;;;5031576;28;20033;-79
2023/12/27 07:42:43;;;;;;;17.42;11.00;;;;;;;;;;5031077;28;20021;-78
2023/12/27 07:45:09;;;;;;;17.35;10.35;;;;;;;;;;5023734;28;20098;-79
2023/12/27 07:47:34;;;;;;;17.48;11.10;;;;;;;;;;5033398;28;20044;-79
2023/12/27 07:50:00;;;;;;;;;;;;;;;;;;5034166;28;20025;-79
2023/12/27 07:52:25;;;;;;;16.67;10.40;;;;;;;;;;5046287;28;19984;-79
2023/12/27 07:54:52;;;;;;;;;;;;;;;;;;5030157;28;20087;-79
2023/12/27 07:57:17;;;;;;;13.38;9.25;;;;;;;;;;5034144;28;19909;-78
2023/12/27 07:59:43;;;;;;;15.93;10.25;;;;;;;;;;5013105;28;20040;-79
2023/12/27 08:02:09;;;;;;;19.40;10.77;;;;;;;;;;5029779;28;20037;-78
2023/12/27 08:04:34;;;;;;;;;;;;;;;;;;5034938;28;20407;-78
2023/12/27 08:07:00;;;;;;;17.77;10.15;;;;;;;;;;5030333;28;20497;-78
2023/12/27 08:09:26;;;;;;;17.55;10.40;;;;;;;;;;5013650;28;20052;-78
2023/12/27 08:11:51;;;;;;;;;;;;;;;;;;5012001;28;20017;-80
2023/12/27 08:14:17;;;;;;;22.52;12.23;;;;;;;;;;5009955;28;20390;-79
2023/12/27 08:16:42;;;;;;;25.45;11.48;;;;;;;;;;5028231;28;20021;-79
2023/12/27 08:19:08;;;;;;;;;;;;;;;;;;5031102;28;20037;-78
2023/12/27 08:21:33;;;;;;;21.00;11.60;;;;;;;;;;5030118;28;19909;-78
2023/12/27 08:23:59;;;;;;;16.77;10.80;;;;;;;;;;5029327;28;20045;-78
2023/12/27 08:26:24;;;;;;;18.27;10.75;;;;;;;;;;5029259;28;20842;-78
2023/12/27 08:28:50;;;;;;;;;;;;;;;;;;5030754;28;20120;-78
2023/12/27 08:31:15;;;;;;;16.65;7.90;;;;;;;;;;5028470;28;19915;-78
2023/12/27 08:33:41;;;;;;;12.25;7.28;;;;;;;;;;5029202;28;20041;-77
2023/12/27 08:36:06;;;;;;;13.07;7.95;;;;;;;;;;5030193;28;20039;-77
2023/12/27 08:38:32;;;;;;;;;;;;;;;;;;5030651;28;20527;-78
2023/12/27 08:40:57;;;;;;;14.57;7.35;;;;;;;;;;5029974;28;19913;-78
2023/12/27 08:43:27;;;;;;;14.43;7.68;;;;;;;;;;5027972;28;20377;-78
2023/12/27 08:45:53;;;;;;;12.70;7.50;;;;;;;;;;5012607;28;20045;-79
2023/12/27 08:48:18;;;;;;;13.68;7.80;;;;;;;;;;5029174;28;20136;-78
2023/12/27 08:50:44;;;;;;;12.50;6.78;;;;;;;;;;5029223;28;20018;-78
2023/12/27 08:53:11;;;;;;;9.82;5.55;;;;;;;;;;5039980;28;20034;-78
2023/12/27 08:55:37;;;;;;;9.90;5.97;;;;;;;;;;5030135;28;20423;-79
2023/12/27 08:58:02;;;;;;;9.95;5.75;;;;;;;;;;5028333;28;20053;-77
2023/12/27 09:00:28;;;;;;;9.20;5.20;;;;;;;;;;5028106;28;20022;-78
2023/12/27 09:02:53;;;;;;;11.90;5.38;;;;;;;;;;5031945;28;20449;-78
2023/12/27 09:05:19;;;;;;;12.13;6.78;;;;;;;;;;5029838;28;20519;-78
2023/12/27 09:07:44;;;;;;;;;;;;;;;;;;5029058;28;20021;-79
2023/12/27 09:10:10;;;;;;;14.82;9.27;;;;;;;;;;5030030;28;19909;-78
2023/12/27 09:12:38;;;;;;;17.75;10.52;;;;;;;;;;5028946;28;20045;-78
2023/12/27 09:15:04;;;;;;;21.80;10.77;;;;;;;;;;5028721;28;20500;-79
2023/12/27 09:17:30;;;;;;;16.30;11.07;;;;;;;;;;5028559;28;20045;-79
2023/12/27 09:19:55;;;;;;;16.75;10.48;;;;;;;;;;5028355;28;20029;-78
2023/12/27 09:22:21;;;;;;;;;;;;;;;;;;5029866;28;20044;-79
2023/12/27 09:24:46;;;;;;;14.77;9.45;;;;;;;;;;5032466;28;19909;-78
2023/12/27 09:27:13;;;;;;;15.90;10.02;;;;;;;;;;5033334;28;20483;-78
2023/12/27 09:29:39;;;;;;;15.00;9.65;;;;;;;;;;5017869;28;20029;-79
2023/12/27 09:32:05;;;;;;;15.15;9.32;;;;;;;;;;5034763;28;20039;-79
2023/12/27 09:34:31;;;;;;;15.80;9.48;;;;;;;;;;5031685;28;20160;-79
2023/12/27 09:37:00;;;;;;;15.95;9.38;;;;;;;;;;5016614;28;20063;-78
2023/12/27 09:39:26;;;;;;;14.27;7.70;;;;;;;;;;5016559;28;20037;-79
2023/12/27 09:41:51;;;;;;;;;;;;;;;;;;5016876;28;20092;-79
2023/12/27 09:44:18;;;;;;;12.70;6.63;;;;;;;;;;5031283;28;19952;-78
2023/12/27 09:46:43;;;;;;;9.55;5.72;;;;;;;;;;4999754;28;20042;-78
2023/12/27 09:49:09;;;;;;;;;;;;;;;;;;5032873;28;20103;-78
2023/12/27 09:51:35;;;;;;;7.28;3.83;;;;;;;;;;5031710;28;19963;-79
2023/12/27 09:54:00;;;;;;;8.13;3.80;;;;;;;;;;5033628;28;20028;-77
2023/12/27 09:56:26;;;;;;;8.25;4.38;;;;;;;;;;5032005;28;20033;-79
2023/12/27 09:58:53;;;;;;;7.80;3.75;;;;;;;;;;5042753;28;20052;-79
2023/12/27 10:01:20;;;;;;;5.35;3.28;;;;;;;;;;5024419;28;20049;-79
2023/12/27 10:03:47;;;;;;;4.95;3.35;;;;;;;;;;5037517;28;20032;-78
2023/12/27 10:06:20;;;;;;;5.57;3.58;;;;;;;;;;5029174;28;20036;-78
2023/12/27 10:08:45;;;;;;;7.97;4.45;;;;;;;;;;5031692;28;20120;-79
2023/12/27 10:11:11;;;;;;;9.52;5.03;;;;;;;;;;5013667;28;20440;-79
2023/12/27 10:13:37;;;;;;;9.75;4.82;;;;;;;;;;5014802;28;20500;-79
2023/12/27 10:16:04;;;;;;;9.25;4.97;;;;;;;;;;5032071;28;20488;-79
2023/12/27 10:18:30;;;;;;;8.73;4.63;;;;;;;;;;5032691;28;20557;-78
2023/12/27 10:20:56;;;;;;;7.00;4.15;;;;;;;;;;5031795;28;20370;-80
2023/12/27 10:23:22;;;;;;;8.23;4.50;;;;;;;;;;5022123;28;20041;-79
2023/12/27 10:25:47;;;;;;;;;;;;;;;;;;5027472;28;20040;-79
2023/12/27 10:28:13;;;;;;;6.43;3.88;;;;;;;;;;5029157;28;19912;-78
2023/12/27 10:30:38;;;;;;;;;;;;;;;;;;5032074;28;20202;-78
2023/12/27 10:33:04;;;;;;;8.07;4.18;;;;;;;;;;5033738;28;19917;-78
2023/12/27 10:35:31;;;;;;;;;;;;;;;;;;5031301;28;20032;-78
2023/12/27 10:38:06;;;;;;;10.10;4.05;;;;;;;;;;5034330;28;19913;-78
2023/12/27 10:40:32;;;;;;;6.15;4.10;;;;;;;;;;5031823;28;20522;-80
2023/12/27 10:42:58;;;;;;;5.55;3.63;;;;;;;;;;5033586;28;20099;-77
2023/12/27 10:45:23;;;;;;;7.65;3.83;;;;;;;;;;5031427;28;20104;-77
2023/12/27 10:47:49;;;;;;;7.75;4.15;;;;;;;;;;5017366;28;20038;-78
2023/12/27 10:50:19;;;;;;;5.95;3.92;;;;;;;;;;5016631;28;20045;-79
2023/12/27 10:52:44;;;;;;;8.55;4.40;;;;;;;;;;5031703;28;20032;-79
2023/12/27 10:55:10;;;;;;;8.48;4.68;;;;;;;;;;5026937;28;20033;-79
2023/12/27 10:57:36;;;;;;;7.32;3.85;;;;;;;;;;5030898;28;20409;-79
2023/12/27 11:00:03;;;;;;;;;;;;;;;;;;5032162;28;20056;-78
2023/12/27 11:02:29;;;;;;;9.43;4.75;;;;;;;;;;5032929;28;19909;-78
2023/12/27 11:04:54;;;;;;;;;;;;;;;;;;5026746;28;20037;-79
2023/12/27 11:07:20;;;;;;;11.65;5.72;;;;;;;;;;5030333;28;20421;-78
2023/12/27 11:09:45;;;;;;;13.77;6.40;;;;;;;;;;5031385;28;20048;-79
2023/12/27 11:12:10;;;;;;;10.90;5.70;;;;;;;;;;5038291;28;20037;-79
2023/12/27 11:14:37;;;;;;;10.60;5.95;;;;;;;;;;5018094;28;20033;-79
2023/12/27 11:17:04;;;;;;;13.40;5.90;;;;;;;;;;5033052;28;20032;-78
2023/12/27 11:19:29;;;;;;;9.15;4.93;;;;;;;;;;5033142;28;20116;-79
2023/12/27 11:21:54;;;;;;;9.23;4.97;;;;;;;;;;5018085;28;20112;-78
2023/12/27 11:24:21;;;;;;;11.23;5.53;;;;;;;;;;5031345;28;20037;-78
2023/12/27 11:26:48;;;;;;;8.60;5.28;;;;;;;;;;5021786;28;20024;-79
2023/12/27 11:29:14;;;;;;;10.85;4.75;;;;;;;;;;5030537;28;20443;-78
2023/12/27 11:31:40;;;;;;;9.48;4.70;;;;;;;;;;5037889;28;20021;-79
2023/12/27 11:34:05;;;;;;;7.40;4.05;;;;;;;;;;5030067;28;20098;-77
2023/12/27 11:36:31;;;;;;;9.52;4.55;;;;;;;;;;5030790;28;20033;-78
2023/12/27 11:38:56;;;;;;;9.60;4.68;;;;;;;;;;5036474;28;20045;-78
2023/12/27 11:41:22;;;;;;;10.38;4.82;;;;;;;;;;5030272;28;20090;-78
2023/12/27 11:43:56;;;;;;;8.90;5.00;;;;;;;;;;5018226;28;20037;-78
2023/12/27 11:46:30;;;;;;;8.88;4.97;;;;;;;;;;5038449;28;20205;-78
2023/12/27 11:48:58;;;;;;;8.13;4.53;;;;;;;;;;5020680;28;20026;-79
2023/12/27 11:51:32;;;;;;;9.10;5.15;;;;;;;;;;5015874;28;20108;-79
2023/12/27 11:53:58;;;;;;;9.77;4.63;;;;;;;;;;5034915;28;20454;-78
2023/12/27 11:56:24;;;;;;;8.20;4.43;;;;;;;;;;5030076;28;20495;-79
2023/12/27 11:58:49;;;;;;;12.70;5.25;;;;;;;;;;5042024;28;20041;-78
2023/12/27 12:01:30;;;;;;;9.68;4.38;;;;;;;;;;5032501;28;20163;-78
2023/12/27 12:04:13;;;;;;;7.75;4.20;;;;;;;;;;5038227;28;20033;-79
2023/12/27 12:06:50;;;;;;;6.75;4.57;;;;;;;;;;5030610;28;20045;-79
2023/12/27 12:09:16;;;;;;;7.65;4.88;;;;;;;;;;5030027;28;20037;-79
2023/12/27 12:11:45;;;;;;;7.75;4.78;;;;;;;;;;5029092;28;20018;-78
2023/12/27 12:14:10;;;;;;;7.50;4.78;;;;;;;;;;5031328;28;20029;-80
2023/12/27 12:16:36;;;;;;;16.90;8.43;;;;;;;;;;5031375;28;20075;-79
2023/12/27 12:19:08;;;;;;;12.98;6.80;;;;;;;;;;5032127;28;20041;-79
2023/12/27 12:21:33;;;;;;;8.05;4.90;;;;;;;;;;5033039;28;20037;-78
2023/12/27 12:24:05;;;;;;;8.25;4.95;;;;;;;;;;5029962;28;20152;-80
2023/12/27 12:26:30;;;;;;;6.75;4.38;;;;;;;;;;5034096;28;20040;-77
2023/12/27 12:28:57;;;;;;;6.80;4.47;;;;;;;;;;5029507;28;20029;-79
2023/12/27 12:31:23;;;;;;;7.70;4.63;;;;;;;;;;5030823;28;20048;-79
2023/12/27 12:33:49;;;;;;;6.32;4.30;;;;;;;;;;5012753;28;20408;-79
2023/12/27 12:36:15;;;;;;;7.78;4.53;;;;;;;;;;5029284;28;20069;-78
2023/12/27 12:38:41;;;;;;;6.22;4.28;;;;;;;;;;5029466;28;20029;-78
2023/12/27 12:41:06;;;;;;;6.40;4.20;;;;;;;;;;5030034;28;20044;-79
2023/12/27 12:43:31;;;;;;;;;;;;;;;;;;5013387;28;20510;-79
2023/12/27 12:45:58;;;;;;;5.85;3.40;;;;;;;;;;5029863;28;19921;-79
2023/12/27 12:48:24;;;;;;;5.63;3.83;;;;;;;;;;5029112;28;20041;-78
2023/12/27 12:50:50;;;;;;;5.50;3.70;;;;;;;;;;5029700;28;20052;-79
2023/12/27 12:53:16;;;;;;;7.82;3.70;;;;;;;;;;5029177;28;20480;-80
2023/12/27 12:55:43;;;;;;;7.00;3.85;;;;;;;;;;5029671;28;20029;-79
2023/12/27 12:58:09;;;;;;;6.18;4.13;;;;;;;;;;5012655;28;20041;-78
2023/12/27 13:00:35;;;;;;;;;;;;;;;;;;5013963;28;20033;-78
2023/12/27 13:03:00;;;;;;;6.35;3.60;;;;;;;;;;5012922;28;20016;-79
2023/12/27 13:05:26;;;;;;;5.70;3.42;;;;;;;;;;5028898;28;20080;-79
2023/12/27 13:07:51;;;;;;;5.47;3.13;;;;;;;;;;5030059;28;20022;-80
2023/12/27 13:10:17;;;;;;;;;;;;;;;;;;5030975;28;20045;-79
2023/12/27 13:12:42;;;;;;;5.85;3.60;;;;;;;;;;5031436;28;19909;-79
2023/12/27 13:15:08;;;;;;;5.32;3.38;;;;;;;;;;5016368;28;20049;-78
2023/12/27 13:17:33;;;;;;;5.72;3.58;;;;;;;;;;5030475;28;20059;-79
2023/12/27 13:19:59;;;;;;;4.95;3.38;;;;;;;;;;5012148;28;20038;-79
2023/12/27 13:22:24;;;;;;;5.50;3.38;;;;;;;;;;5029867;28;20047;-79
2023/12/27 13:24:50;;;;;;;7.38;3.80;;;;;;;;;;5026869;28;20448;-77
2023/12/27 13:27:15;;;;;;;6.60;4.32;;;;;;;;;;5029166;28;20041;-79
2023/12/27 13:29:41;;;;;;;6.30;3.30;;;;;;;;;;5032192;28;20102;-77
2023/12/27 13:32:07;;;;;;;4.95;2.90;;;;;;;;;;5028722;28;20039;-79
2023/12/27 13:34:33;;;;;;;5.63;3.20;;;;;;;;;;5031909;28;20116;-79
2023/12/27 13:36:58;;;;;;;5.78;3.28;;;;;;;;;;5028198;28;20124;-79
2023/12/27 13:39:24;;;;;;;6.50;3.38;;;;;;;;;;5034853;28;20510;-78
2023/12/27 13:41:49;;;;;;;5.38;3.25;;;;;;;;;;5028743;28;20449;-79
2023/12/27 13:44:15;;;;;;;;;;;;;;;;;;5028348;28;20401;-78
2023/12/27 13:46:40;;;;;;;4.57;2.70;;;;;;;;;;5039727;28;19923;-78
2023/12/27 13:49:05;;;;;;;;;;;;;;;;;;5027392;28;20542;-79
2023/12/27 13:51:31;;;;;;;5.28;2.70;;;;;;;;;;5038258;28;19909;-79
2023/12/27 13:53:56;;;;;;;4.80;2.90;;;;;;;;;;5028042;28;20441;-79
2023/12/27 13:56:21;;;;;;;;;;;;;;;;;;5035675;28;20053;-79
2023/12/27 13:58:47;;;;;;;5.30;3.30;;;;;;;;;;5036731;28;19936;-79
2023/12/27 14:01:12;;;;;;;5.95;3.13;;;;;;;;;;5034738;28;20396;-79
2023/12/27 14:03:38;;;;;;;6.00;3.38;;;;;;;;;;5035867;28;20550;-77
2023/12/27 14:06:04;;;;;;;6.47;3.03;;;;;;;;;;5028574;28;20076;-78
2023/12/27 14:08:30;;;;;;;5.32;2.83;;;;;;;;;;5029778;28;20029;-79
2023/12/27 14:10:56;;;;;;;4.80;2.40;;;;;;;;;;5033193;28;20538;-79
2023/12/27 14:13:22;;;;;;;4.30;2.45;;;;;;;;;;5037170;28;20025;-78
2023/12/27 14:15:47;;;;;;;4.00;2.30;;;;;;;;;;5037804;28;20112;-80
2023/12/27 14:18:13;;;;;;;4.95;3.15;;;;;;;;;;5038651;28;20029;-79
2023/12/27 14:20:38;;;;;;;4.32;2.90;;;;;;;;;;5031632;28;20508;-79
2023/12/27 14:23:04;;;;;;;5.50;3.35;;;;;;;;;;5041885;28;20041;-79
2023/12/27 14:25:34;;;;;;;4.70;3.22;;;;;;;;;;5023446;28;20037;-80
2023/12/27 14:28:00;;;;;;;6.10;3.58;;;;;;;;;;5033179;28;20029;-78
2023/12/27 14:30:26;;;;;;;6.70;4.03;;;;;;;;;;5023741;28;20061;-79
2023/12/27 14:32:51;;;;;;;8.05;3.85;;;;;;;;;;5036123;28;20023;-79
2023/12/27 14:35:17;;;;;;;6.90;4.20;;;;;;;;;;5034977;28;20500;-79
2023/12/27 14:37:43;;;;;;;;;;;;;;;;;;5031696;28;20025;-79
2023/12/27 14:40:10;;;;;;;8.98;4.85;;;;;;;;;;5032274;28;19909;-79
2023/12/27 14:42:36;;;;;;;9.02;5.03;;;;;;;;;;5032528;28;20508;-79
2023/12/27 14:45:02;;;;;;;4.35;2.97;;;;;;;;;;5031211;28;20090;-79
2023/12/27 14:47:28;;;;;;;6.45;4.15;;;;;;;;;;5029231;28;20510;-78
2023/12/27 14:49:54;;;;;;;5.40;3.83;;;;;;;;;;5032494;28;20108;-79
2023/12/27 14:52:19;;;;;;;;;;;;;;;;;;5024003;28;20080;-77